Tiempo atmosférico en la estación meteorológica de Capella, Huesca (600 m.)

Fecha
DESCASC
Temp. máxima en grados centígrados (hora)
DESCASC
Temp. mínima en grados centígrados (hora)
DESCASC
Temp. media en grados centígrados
DESCASC
Racha de viento máxima en m/sg (hora)
DESCASC
Velocidad máxima media en intervalos de 10 minutos(hora)
DESCASC
Precipitaciones diarias en mm
DESCASC
Precipitaciones de 00:00 a 06:00 en mm
DESCASC
Precipitaciones de 06:00 a 12:00 en mm
DESCASC
Precipitaciones de 12:00 a 18:00 en mm
DESCASC
Precipitaciones de 18:00 a 24:00 en mm
DESCASC
21-09-2017 25.9 (17:00) 7.1 (08:00) 16.5 6.67 (15:10) 4.44 (16:20) 0 0 0 0 0
20-09-2017 22.2 (17:20) 5.3 (08:10) 13.8 7.78 (14:20) 4.72 (14:20) 0 0 0 0 0
19-09-2017 22.7 (18:00) 4.4 (08:20) 13.6 7.5 (17:30) 3.89 (15:10) 0 0 0 0 0
18-09-2017 21 (18:00) 9.9 (04:50) 15.4 9.17 (13:50) 5.28 (13:50) 1.4 0 1.4 0 0
17-09-2017 19.6 (16:30) 4.5 (00:00) 12.1 8.33 (17:10) 4.72 (13:30) 0 0 0 0 0
16-09-2017 18.2 (16:30) 6.2 (00:00) 12.2 9.17 (16:30) 4.72 (16:20) 4 0 0 1.2 2.8
15-09-2017 16.2 (00:00) 8.4 (00:00) 12.3 5.83 (01:50) 3.33 (13:10) 14.4 9.4 5 0 0
14-09-2017 28 (16:30) 11.3 (00:00) 19.7 13.06 (16:30) 7.78 (16:20) 0 0 0 0 0
13-09-2017 27.5 (16:50) 8.8 (00:00) 18.2 8.06 (15:10) 5 (15:10) 0 0 0 0 0
12-09-2017 25.4 (17:40) 10.7 (00:00) 18 8.89 (18:00) 5.83 (18:10) 0 0 0 0 0
11-09-2017 27.1 (14:30) 9.4 (00:00) 18.3 15.28 (19:30) 8.89 (17:20) 0 0 0 0 0
10-09-2017 24 (16:20) 5.6 (00:00) 14.8 10.28 (17:30) 6.67 (19:30) 0 0 0 0 0
09-09-2017 22.4 (17:40) 11.2 (00:00) 16.8 8.89 (20:00) 5.28 (19:10) 0.4 0 0.2 0.2 0
08-09-2017 25.4 (17:30) 8.9 (00:00) 17.1 9.17 (14:00) 5.83 (14:20) 0 0 0 0 0
07-09-2017 25.3 (18:00) 10.5 (00:00) 17.9 8.89 (14:40) 6.11 (14:10) 0 0 0 0 0
06-09-2017 28.6 (17:40) 15.6 (00:00) 22.1 8.61 (17:10) 5.56 (16:00) 0 0 0 0 0
05-09-2017 30.1 (17:30) 15 (00:00) 22.6 9.72 (14:50) 4.44 (19:10) 0 0 0 0 0
04-09-2017 28.4 (16:40) 15 (00:00) 21.7 8.33 (19:10) 4.72 (16:00) 0.2 0.2 0 0 0
03-09-2017 26.7 (18:20) 9.4 (00:00) 18.1 10.28 (17:20) 5.28 (17:10) 0 0 0 0 0
02-09-2017 25.8 (17:20) 6.8 (00:00) 16.3 10 (15:20) 5 (15:20) 0 0 0 0 0
01-09-2017 25.1 (16:40) 11.4 (00:00) 18.3 11.11 (18:50) 6.94 (18:10) 0 0 0 0 0
31-08-2017 25.3 (17:30) 16.1 (00:00) 20.7 10 (12:50) 6.11 (12:40) 0 0 0 0 0
30-08-2017 27.7 (15:50) 16.3 (00:00) 22 7.22 (17:00) 4.17 (17:00) 0 0 0 0 0
29-08-2017 28.4 (16:20) 16.7 (00:00) 22.6 9.17 (17:10) 5 (17:00) 0.4 0 0 0 0.4
28-08-2017 34.8 (15:50) 15.3 (00:00) 25 10.83 (19:00) 7.22 (18:50) 0 0 0 0 0
27-08-2017 33 (15:40) 18.9 (00:00) 25.9 9.44 (18:00) 6.11 (18:20) 0.2 0 0 0 0.2
26-08-2017 34.2 (17:00) 17.7 (00:00) 26 14.72 (21:20) 8.61 (21:20) 0 0 0 0 0
25-08-2017 33 (16:10) 16.7 (00:00) 24.9 12.78 (20:40) 6.11 (20:40) 0 0 0 0 0
24-08-2017 32.7 (16:10) 17.3 (00:00) 25 10 (03:50) 6.11 (03:50) 3.4 3.4 0 0 0

Gráficas

Temp. máximas Temp. mínimas Temp. medias Precipitaciones Rachas de viento máximas Velocidades máximas media en intervalos de 10 minutos

Datos horarios

Fecha y hora oficial Temperatura (ºC) Velocidad del viento (km/h) Dirección del viento Racha (km/h) Dirección de racha Precipitación (mm) Presión (hPa) Tendencia (hPa) Humedad (%)
2017-09-22 23:00:00 12.8 4 Este 9 Nordeste 0 -- -- 92
2017-09-22 22:00:00 13.3 4 Este 7 Sudeste 0 -- -- 91
2017-09-22 21:00:00 14.7 3 Este 9 Sur 0 -- -- 87
2017-09-22 20:00:00 16.6 3 Sudeste 6 Sudeste 0 -- -- 77
2017-09-22 19:00:00 18.3 3 Nordeste 7 Nordeste 0 -- -- 71
2017-09-22 18:00:00 18.5 2 Nordeste 18 Este 0 -- -- 71
2017-09-22 17:00:00 16.2 9 Este 18 Este 0 -- -- 85
2017-09-22 16:00:00 15.8 4 Nordeste 26 Nordeste 0 -- -- 84
2017-09-22 15:00:00 13.8 6 Nordeste 21 Nordeste 3.8 -- -- 95
2017-09-22 14:00:00 13.7 5 Sur 18 Oeste 4.2 -- -- 93
2017-09-22 13:00:00 14.6 12 Oeste 34 Sudoeste 1.2 -- -- 86
2017-09-22 12:00:00 17.7 8 Sudoeste 15 Sudoeste 0 -- -- 68
2017-09-22 11:00:00 17.6 2 Sur 6 Nordeste 0 -- -- 66
2017-09-22 10:00:00 14.5 3 Nordeste 5 Este 0 -- -- 77
2017-09-22 09:00:00 12.2 0 Calma 5 Nordeste 0 -- -- 82
2017-09-22 08:00:00 11.5 2 Este 8 Este 0 -- -- 83
2017-09-22 07:00:00 12.7 4 Este 9 Nordeste 0 -- -- 77
2017-09-22 06:00:00 12.4 5 Nordeste 8 Nordeste 0 -- -- 78
2017-09-22 05:00:00 13 4 Este 11 Nordeste 0 -- -- 76
2017-09-22 04:00:00 12.8 5 Nordeste 13 Nordeste 0 -- -- 79
2017-09-22 03:00:00 12.9 5 Nordeste 13 Nordeste 0 -- -- 76
2017-09-22 02:00:00 13.1 6 Este 10 Nordeste 0 -- -- 74
2017-09-22 01:00:00 13.9 7 Nordeste 10 Nordeste 0 -- -- 70
2017-09-22 00:00:00 14 3 Sudeste 9 Nordeste 0 -- -- 70
2017-09-21 23:00:00 15.2 4 Este 10 Sudeste 0 -- -- 64
2017-09-21 22:00:00 16.6 7 Nordeste 11 Nordeste 0 -- -- 61
2017-09-21 21:00:00 17.8 2 Nordeste 8 Sur 0 -- -- 54
2017-09-21 20:00:00 21.5 5 Sur 13 Sudoeste 0 -- -- 48
2017-09-21 19:00:00 23.8 8 Sudoeste 21 Sudoeste 0 -- -- 42
2017-09-21 18:00:00 25.1 12 Oeste 21 Oeste 0 -- -- 38
2017-09-21 17:00:00 25.9 14 Oeste 23 Oeste 0 -- -- 37
2017-09-21 16:00:00 25.8 15 Oeste 24 Sudoeste 0 -- -- 37
2017-09-21 15:00:00 25.3 13 Oeste 22 Oeste 0 -- -- 31
2017-09-21 14:00:00 23.5 5 Oeste 20 Sudoeste 0 -- -- 35
2017-09-21 13:00:00 21.5 4 Noroeste 12 Sudoeste 0 -- -- 38
2017-09-21 12:00:00 19.2 9 Sudoeste 14 Sudoeste 0 -- -- 44
2017-09-21 11:00:00 16.1 6 Oeste 9 Oeste 0 -- -- 54
2017-09-21 10:00:00 12.4 0 Calma 5 Nordeste 0 -- -- 66
2017-09-21 09:00:00 8.7 2 Nordeste 6 Nordeste 0 -- -- 80
2017-09-21 08:00:00 7.1 2 Este 6 Este 0 -- -- 81
2017-09-21 07:00:00 7.4 3 Este 10 Nordeste 0 -- -- 80
2017-09-21 06:00:00 7.5 2 Este 6 Nordeste 0 -- -- 80
2017-09-21 05:00:00 8.2 4 Este 8 Este 0 -- -- 76
2017-09-21 04:00:00 8.1 0 Calma 9 Nordeste 0 -- -- 78
2017-09-21 03:00:00 9.4 0 Calma 6 Sudeste 0 -- -- 72
2017-09-21 02:00:00 9.7 3 Nordeste 7 Este 0 -- -- 71
2017-09-21 01:00:00 9.9 0 Calma 8 Nordeste 0 -- -- 71
2017-09-21 00:00:00 10.7 0 Calma 6 Nordeste 0 -- -- 69
2017-09-20 23:00:00 12.6 7 Nordeste 14 Nordeste 0 -- -- 58
2017-09-20 22:00:00 13.4 3 Este 10 Nordeste 0 -- -- 58
2017-09-20 21:00:00 15.3 0 Calma 9 Sur 0 -- -- 52
2017-09-20 20:00:00 18.5 6 Sudoeste 14 Oeste 0 -- -- 41
2017-09-20 19:00:00 21.3 10 Sudoeste 17 Oeste 0 -- -- 33
2017-09-20 18:00:00 22.1 13 Oeste 21 Sudoeste 0 -- -- 30
2017-09-20 17:00:00 22 13 Oeste 25 Oeste 0 -- -- 31
2017-09-20 16:00:00 21.4 16 Oeste 24 Sudoeste 0 -- -- 32
2017-09-20 15:00:00 20.9 15 Oeste 28 Oeste 0 -- -- 31
2017-09-20 14:00:00 20.5 15 Sudoeste 25 Sudoeste 0 -- -- 29
2017-09-20 13:00:00 19.6 11 Sudoeste 22 Sudoeste 0 -- -- 31
2017-09-20 12:00:00 17.1 9 Oeste 15 Oeste 0 -- -- 31
2017-09-20 11:00:00 14.4 2 Sudoeste 6 Oeste 0 -- -- 42
2017-09-20 10:00:00 11.1 0 Calma 8 Nordeste 0 -- -- 51
2017-09-20 09:00:00 7.6 3 Sudeste 6 Sudeste 0 -- -- 59
2017-09-20 08:00:00 5.4 0 Calma 10 Nordeste 0 -- -- 67
2017-09-20 07:00:00 5.9 3 Este 10 Nordeste 0 -- -- 65
2017-09-20 06:00:00 6.7 5 Nordeste 12 Nordeste 0 -- -- 59
2017-09-20 05:00:00 7 6 Nordeste 10 Nordeste 0 -- -- 60
2017-09-20 04:00:00 7.8 6 Nordeste 10 Este 0 -- -- 56
2017-09-20 03:00:00 8.8 5 Este 12 Nordeste 0 -- -- 52
2017-09-20 02:00:00 9.7 4 Nordeste 15 Este 0 -- -- 50
2017-09-20 01:00:00 10.8 5 Nordeste 17 Nordeste 0 -- -- 47
2017-09-20 00:00:00 12.5 6 Nordeste 13 Este 0 -- -- 40
2017-09-19 23:00:00 14.1 7 Nordeste 20 Este 0 -- -- 36
2017-09-19 22:00:00 15.8 10 Nordeste 19 Nordeste 0 -- -- 37
2017-09-19 21:00:00 17.1 8 Nordeste 14 Sur 0 -- -- 41
2017-09-19 20:00:00 19.4 9 Sur 22 Sur 0 -- -- 33
2017-09-19 19:00:00 22.1 9 Sudoeste 19 Sudoeste 0 -- -- 26
2017-09-19 18:00:00 22.7 13 Sudoeste 27 Sudoeste 0 -- -- 24
2017-09-19 17:00:00 22.5 12 Sur 25 Sudoeste 0 -- -- 26
2017-09-19 16:00:00 21.4 11 Sudoeste 22 Sur 0 -- -- 28
2017-09-19 15:00:00 20 11 Sudoeste 22 Sudoeste 0 -- -- 32
2017-09-19 14:00:00 18.9 9 Sudoeste 20 Sudoeste 0 -- -- 33
2017-09-19 13:00:00 17.5 9 Sudoeste 20 Oeste 0 -- -- 35
2017-09-19 12:00:00 15.7 11 Oeste 16 Sudoeste 0 -- -- 46
2017-09-19 11:00:00 12.9 5 Oeste 9 Sudoeste 0 -- -- 53
2017-09-19 10:00:00 9.9 0 Calma 7 Nordeste 0 -- -- 60
2017-09-19 09:00:00 6.7 0 Calma 6 Este 0 -- -- 73
2017-09-19 08:00:00 4.8 2 Nordeste 9 Nordeste 0 -- -- 80
2017-09-19 07:00:00 5.1 4 Este 7 Norte 0 -- -- 81
2017-09-19 06:00:00 6 0 Calma 11 Nordeste 0 -- -- 75
2017-09-19 05:00:00 5.9 5 Nordeste 8 Nordeste 0 -- -- 81
2017-09-19 04:00:00 6.5 3 Nordeste 8 Nordeste 0 -- -- 78
2017-09-19 03:00:00 7.9 4 Este 10 Este 0 -- -- 76
2017-09-19 02:00:00 8.1 3 Nordeste 7 Este 0 -- -- 81
2017-09-19 01:00:00 9.1 3 Norte 5 Norte 0 -- -- 81
2017-09-19 00:00:00 11.3 5 Este 9 Nordeste 0 -- -- 75
2017-09-18 23:00:00 12.9 4 Este 6 Nordeste 0 -- -- 71
2017-09-18 22:00:00 15.1 4 Sudeste 20 Sudoeste 0 -- -- 63
2017-09-18 21:00:00 16.5 11 Sudoeste 18 Sudoeste 0 -- -- 57
2017-09-18 20:00:00 17.6 7 Sudoeste 23 Sudoeste 0 -- -- 54
2017-09-18 19:00:00 19.5 12 Sudoeste 26 Sur 0 -- -- 47
2017-09-18 18:00:00 21 13 Sudoeste 24 Sudoeste 0 -- -- 44
2017-09-18 17:00:00 20.5 13 Oeste 24 Oeste 0 -- -- 45
2017-09-18 16:00:00 19.8 12 Sudoeste 30 Sudoeste 0 -- -- 49
2017-09-18 15:00:00 18.9 16 Sudoeste 33 Sur 0 -- -- 53
2017-09-18 14:00:00 18.3 18 Sudoeste 33 Sudoeste 0 -- -- 51
2017-09-18 13:00:00 16.6 9 Sudoeste 19 Sudoeste 0 -- -- 61
2017-09-18 12:00:00 14.6 4 Nordeste 9 Nordeste 0 -- -- 73
2017-09-18 11:00:00 11.8 3 Nordeste 8 Sur 0 -- -- 88
2017-09-18 10:00:00 10.7 7 Sur 18 Sur 1.4 -- -- 86
2017-09-18 09:00:00 10.6 8 Sudoeste 12 Sur 0 -- -- 77
2017-09-18 08:00:00 10.3 0 Calma 6 Nordeste 0 -- -- 78
2017-09-18 07:00:00 10.2 3 Este 5 Este 0 -- -- 77
2017-09-18 06:00:00 10.1 0 Calma 8 Este 0 -- -- 79
2017-09-18 05:00:00 10 5 Sudeste 8 Sudeste 0 -- -- 77
2017-09-18 04:00:00 10.6 3 Este 10 Nordeste 0 -- -- 73
2017-09-18 03:00:00 10.3 4 Nordeste 10 Nordeste 0 -- -- 76
2017-09-18 02:00:00 12.5 3 Nordeste 10 Nordeste 0 -- -- 66
2017-09-18 01:00:00 13.1 4 Sudeste 6 Sudeste 0 -- -- 65
2017-09-18 00:00:00 14.1 0 Calma 9 Nordeste 0 -- -- 62
2017-09-17 23:00:00 14.4 4 Nordeste 15 Sur 0 -- -- 61
2017-09-17 22:00:00 15.9 8 Sur 15 Sudeste 0 -- -- 46
2017-09-17 21:00:00 15.7 0 Calma 6 Oeste 0 -- -- 53
2017-09-17 20:00:00 17.1 0 Calma 19 Sur 0 -- -- 44
2017-09-17 19:00:00 18.9 13 Sur 24 Sur 0 -- -- 37
2017-09-17 18:00:00 19.1 12 Sur 30 Sur 0 -- -- 39
2017-09-17 17:00:00 19.3 14 Sudoeste 29 Sudoeste 0 -- -- 40
2017-09-17 16:00:00 18.7 15 Sudoeste 27 Sudoeste 0 -- -- 43
2017-09-17 15:00:00 18 11 Sudoeste 23 Sudoeste 0 -- -- 46
2017-09-17 14:00:00 17.1 13 Oeste 24 Sudoeste 0 -- -- 45
2017-09-17 13:00:00 16.1 15 Sudoeste 24 Oeste 0 -- -- 49
2017-09-17 12:00:00 14.1 7 Oeste 12 Sudoeste 0 -- -- 61
2017-09-17 11:00:00 12.1 3 Oeste 6 Oeste 0 -- -- 61
2017-09-17 10:00:00 9.6 2 Norte 6 Nordeste 0 -- -- 79
2017-09-17 09:00:00 6.5 2 Nordeste 7 Este 0 -- -- 92
2017-09-17 08:00:00 4.9 2 Sudeste 5 Este 0 -- -- 96
2017-09-17 07:00:00 5.2 2 Nordeste 8 Este 0 -- -- 95
2017-09-17 06:00:00 4.7 3 Nordeste 8 Este 0 -- -- 94
2017-09-17 05:00:00 4.9 3 Nordeste 6 Este 0 -- -- 95
2017-09-17 04:00:00 5.3 4 Este 8 Sudeste 0 -- -- 95
2017-09-17 03:00:00 5.7 3 Este 7 Este 0 -- -- 95
2017-09-17 02:00:00 6.6 0 Calma 9 Este 0 -- -- 90
2017-09-17 01:00:00 6.6 5 Sudeste 9 Este 0 -- -- 94
2017-09-17 00:00:00 7.3 0 Calma 6 Nordeste 0 -- -- 90
2017-09-16 23:00:00 8.3 5 Nordeste 10 Nordeste 0 -- -- 88
2017-09-16 22:00:00 9 2 Nordeste 7 Este 0 -- -- 88
2017-09-16 21:00:00 10.9 3 Norte 13 Nordeste 0 -- -- 78
2017-09-16 20:00:00 12.2 6 Este 17 Este 0 -- -- 67
2017-09-16 19:00:00 12.7 6 Norte 30 Sudoeste 2.8 -- -- 74
2017-09-16 18:00:00 13.5 7 Oeste 30 Sur 1.2 -- -- 69
2017-09-16 17:00:00 17.1 16 Sudoeste 33 Sudoeste 0 -- -- 45
2017-09-16 16:00:00 17.6 14 Sudoeste 28 Sur 0 -- -- 45
2017-09-16 15:00:00 16.4 14 Sudoeste 25 Sudoeste 0 -- -- 52
2017-09-16 14:00:00 15.5 13 Sudoeste 27 Sudoeste 0 -- -- 56
2017-09-16 13:00:00 14.6 5 Sur 15 Sudoeste 0 -- -- 59
2017-09-16 12:00:00 13 5 Oeste 10 Sudoeste 0 -- -- 72
2017-09-16 11:00:00 11.3 3 Noroeste 6 Noroeste 0 -- -- 79
2017-09-16 10:00:00 9.1 0 Calma 6 Nordeste 0 -- -- 89
2017-09-16 09:00:00 8.4 4 Nordeste 6 Nordeste 0 -- -- 95
2017-09-16 08:00:00 7.6 0 Calma 3 Noroeste 0 -- -- 99
2017-09-16 07:00:00 7.4 0 Calma 4 Sudeste 0 -- -- 99
2017-09-16 06:00:00 7.2 0 Calma 4 Sudeste 0 -- -- 99
2017-09-16 05:00:00 6.8 2 Este 4 Este 0 -- -- 99
2017-09-16 04:00:00 6.5 0 Calma 2 Este 0 -- -- 98
2017-09-16 03:00:00 6.5 0 Calma 3 Sur 0 -- -- 97
2017-09-16 02:00:00 7.1 0 Calma 5 Sur 0 -- -- 97
2017-09-16 01:00:00 7.7 0 Calma 4 Noroeste 0 -- -- 96
2017-09-16 00:00:00 8.4 3 Sudeste 6 Sur 0 -- -- 94
2017-09-15 23:00:00 9.6 3 Sudeste 7 Sudoeste 0 -- -- 90
2017-09-15 22:00:00 10.3 6 Sudoeste 13 Sudoeste 0 -- -- 87
2017-09-15 21:00:00 10.8 6 Sudoeste 15 Sudoeste 0 -- -- 87
2017-09-15 20:00:00 12.8 9 Oeste 17 Sudoeste 0 -- -- 78
2017-09-15 19:00:00 13.5 6 Sudoeste 15 Sur 0 -- -- 74
2017-09-15 18:00:00 13.7 4 Sudoeste 12 Sudoeste 0 -- -- 70
2017-09-15 17:00:00 12.9 6 Sudoeste 12 Sudoeste 0 -- -- 73
2017-09-15 16:00:00 12.3 3 Sudoeste 14 Sudoeste 0 -- -- 81
2017-09-15 15:00:00 11.4 9 Sudoeste 17 Sudoeste 0 -- -- 87
2017-09-15 14:00:00 11.2 6 Sudoeste 18 Sudoeste 0 -- -- 87
2017-09-15 13:00:00 11.2 9 Sudoeste 14 Sudoeste 0 -- -- 91
2017-09-15 12:00:00 10.6 5 Oeste 10 Sudoeste 0 -- -- 92
2017-09-15 11:00:00 10 3 Sudoeste 13 Sur 0 -- -- 94
2017-09-15 10:00:00 9.3 4 Sur 14 Oeste 0.6 -- -- 97
2017-09-15 09:00:00 9.7 2 Este 9 Noroeste 2.2 -- -- 95
2017-09-15 08:00:00 10.2 4 Noroeste 8 Noroeste 1.8 -- -- 96
2017-09-15 07:00:00 10.6 2 Nordeste 6 Este 0.4 -- -- 94
2017-09-15 06:00:00 10.8 2 Noroeste 12 Nordeste 2.4 -- -- 94
2017-09-15 05:00:00 10.9 3 Este 10 Sur 1 -- -- 92
2017-09-15 04:00:00 11 4 Noroeste 8 Nordeste 4 -- -- 94
2017-09-15 03:00:00 12 4 Este 14 Nordeste 1 -- -- 90
2017-09-15 02:00:00 12.4 10 Nordeste 21 Nordeste 0.6 -- -- 83
2017-09-15 01:00:00 13.9 6 Noroeste 18 Sudoeste 0.4 -- -- 72
2017-09-15 00:00:00 16.2 15 Oeste 22 Sudoeste 0 -- -- 45
2017-09-14 23:00:00 17.8 7 Sudoeste 12 Sudoeste 0 -- -- 39
2017-09-14 22:00:00 18.6 0 Calma 20 Sudoeste 0 -- -- 39
2017-09-14 21:00:00 20.2 13 Sudoeste 28 Sudoeste 0 -- -- 35
2017-09-14 20:00:00 22.1 19 Sudoeste 32 Sudoeste 0 -- -- 34
2017-09-14 19:00:00 24.7 21 Oeste 37 Sudoeste 0 -- -- 33
2017-09-14 18:00:00 26.6 25 Oeste 43 Sudoeste 0 -- -- 30
2017-09-14 17:00:00 27.6 22 Oeste 47 Sur 0 -- -- 29
2017-09-14 16:00:00 27.5 23 Sur 41 Sur 0 -- -- 33
2017-09-14 15:00:00 27.1 17 Sur 36 Sudoeste 0 -- -- 38
2017-09-14 14:00:00 25.9 15 Sudoeste 30 Sudoeste 0 -- -- 45
2017-09-14 13:00:00 24.7 13 Sudoeste 25 Sudoeste 0 -- -- 50
2017-09-14 12:00:00 23 13 Oeste 21 Sudoeste 0 -- -- 53
2017-09-14 11:00:00 21.1 14 Sudoeste 20 Oeste 0 -- -- 60
2017-09-14 10:00:00 17.8 2 Norte 7 Oeste 0 -- -- 61
2017-09-14 09:00:00 14.3 4 Nordeste 9 Nordeste 0 -- -- 73
2017-09-14 08:00:00 11.3 0 Calma 0 Calma 0 -- -- 82
2017-09-14 07:00:00 12.6 0 Calma 7 Este 0 -- -- 76
2017-09-14 06:00:00 12.5 0 Calma 6 Nordeste 0 -- -- 77
2017-09-14 05:00:00 13 0 Calma 5 Este 0 -- -- 76
2017-09-14 04:00:00 14.2 3 Este 5 Este 0 -- -- 70
2017-09-14 03:00:00 14.8 0 Calma 9 Nordeste 0 -- -- 68
2017-09-14 02:00:00 15.8 3 Nordeste 14 Nordeste 0 -- -- 64
2017-09-14 01:00:00 16.5 7 Este 13 Nordeste 0 -- -- 62
2017-09-14 00:00:00 16.8 2 Sur 9 Nordeste 0 -- -- 61
2017-09-13 23:00:00 18.7 5 Este 10 Este 0 -- -- 55
2017-09-13 22:00:00 18.8 3 Noroeste 8 Nordeste 0 -- -- 55
2017-09-13 21:00:00 20.6 2 Sudeste 7 Sur 0 -- -- 49
2017-09-13 20:00:00 25.4 4 Sur 12 Sudoeste 0 -- -- 39
2017-09-13 19:00:00 26.6 9 Sudoeste 23 Oeste 0 -- -- 36
2017-09-13 18:00:00 27.1 15 Sudoeste 28 Sudoeste 0 -- -- 32
2017-09-13 17:00:00 27.5 14 Sudoeste 26 Sudoeste 0 -- -- 32
2017-09-13 16:00:00 27.2 15 Sudoeste 29 Sudoeste 0 -- -- 32
2017-09-13 15:00:00 26.3 16 Oeste 27 Sudoeste 0 -- -- 33
2017-09-13 14:00:00 25.5 13 Oeste 25 Sudoeste 0 -- -- 34
2017-09-13 13:00:00 23.9 14 Oeste 20 Oeste 0 -- -- 34
2017-09-13 12:00:00 21.7 7 Sudoeste 13 Sudoeste 0 -- -- 34
2017-09-13 11:00:00 18.8 6 Sudoeste 12 Oeste 0 -- -- 41
2017-09-13 10:00:00 16 4 Noroeste 7 Sudoeste 0 -- -- 48
2017-09-13 09:00:00 12.3 3 Nordeste 6 Nordeste 0 -- -- 55
2017-09-13 08:00:00 9.2 5 Nordeste 9 Nordeste 0 -- -- 66
2017-09-13 07:00:00 9 0 Calma 6 Nordeste 0 -- -- 65
2017-09-13 06:00:00 9.7 3 Sudeste 10 Nordeste 0 -- -- 61
2017-09-13 05:00:00 10.3 3 Este 5 Sudeste 0 -- -- 60
2017-09-13 04:00:00 11.5 4 Este 9 Este 0 -- -- 56
2017-09-13 03:00:00 11.5 3 Este 10 Este 0 -- -- 54
2017-09-13 02:00:00 11.9 5 Nordeste 10 Nordeste 0 -- -- 54
2017-09-13 01:00:00 12.7 5 Este 10 Nordeste 0 -- -- 52
2017-09-13 00:00:00 14.2 5 Este 9 Nordeste 0 -- -- 48
2017-09-12 23:00:00 16.1 3 Nordeste 18 Sudoeste 0 -- -- 43
2017-09-12 22:00:00 17.6 9 Sur 17 Sudoeste 0 -- -- 39
2017-09-12 21:00:00 19.8 11 Sudoeste 21 Sudoeste 0 -- -- 35
2017-09-12 20:00:00 21.6 14 Sudoeste 27 Sudoeste 0 -- -- 31
2017-09-12 19:00:00 24 15 Sudoeste 31 Sur 0 -- -- 28
2017-09-12 18:00:00 24.6 19 Sur 32 Sur 0 -- -- 27
2017-09-12 17:00:00 25.1 9 Sudoeste 21 Sudoeste 0 -- -- 27
2017-09-12 16:00:00 24.3 13 Sudoeste 27 Sudoeste 0 -- -- 29
2017-09-12 15:00:00 23.3 8 Sur 24 Sudoeste 0 -- -- 31
2017-09-12 14:00:00 21.7 6 Oeste 21 Sudoeste 0 -- -- 38
2017-09-12 13:00:00 20.1 7 Sudoeste 16 Oeste 0 -- -- 45
2017-09-12 12:00:00 18.3 3 Noroeste 12 Sudoeste 0 -- -- 51
2017-09-12 11:00:00 15.8 4 Oeste 9 Sur 0 -- -- 62
2017-09-12 10:00:00 13.5 0 Calma 8 Este 0 -- -- 71
2017-09-12 09:00:00 11.6 3 Sudeste 8 Este 0 -- -- 77
2017-09-12 08:00:00 10.8 3 Nordeste 8 Nordeste 0 -- -- 79
2017-09-12 07:00:00 11.2 4 Este 10 Sudoeste 0 -- -- 78
2017-09-12 06:00:00 12.5 10 Sudoeste 14 Sudoeste 0 -- -- 73
2017-09-12 05:00:00 12.2 4 Sudoeste 10 Sudoeste 0 -- -- 72
2017-09-12 04:00:00 14.7 8 Sur 18 Sudoeste 0 -- -- 64
2017-09-12 03:00:00 15.5 5 Sudoeste 18 Sur 0 -- -- 61
2017-09-12 02:00:00 16.9 11 Sudoeste 19 Sur 0 -- -- 58
2017-09-12 01:00:00 16.7 12 Sudoeste 21 Sudoeste 0 -- -- 58
2017-09-12 00:00:00 17.9 13 Sudoeste 21 Sur 0 -- -- 54
2017-09-11 23:00:00 18.9 12 Sur 20 Sudoeste 0 -- -- 50
2017-09-11 22:00:00 20.1 12 Sudoeste 24 Sudoeste 0 -- -- 45
2017-09-11 21:00:00 21 14 Sudoeste 33 Sudoeste 0 -- -- 41
2017-09-11 20:00:00 22.5 24 Sudoeste 55 Sudoeste 0 -- -- 35
2017-09-11 19:00:00 24 31 Sudoeste 49 Sudoeste 0 -- -- 27
2017-09-11 18:00:00 25 29 Oeste 48 Sudoeste 0 -- -- 32
2017-09-11 17:00:00 26.5 26 Oeste 50 Sudoeste 0 -- -- 27
2017-09-11 16:00:00 26.8 26 Oeste 40 Sudoeste 0 -- -- 33
2017-09-11 15:00:00 26.9 24 Sudoeste 46 Sudoeste 0 -- -- 33
2017-09-11 14:00:00 26.6 24 Sudoeste 39 Sudoeste 0 -- -- 33
2017-09-11 13:00:00 25.1 22 Oeste 35 Sudoeste 0 -- -- 40
2017-09-11 12:00:00 23.5 15 Oeste 28 Sudoeste 0 -- -- 48
2017-09-11 11:00:00 20.8 13 Sudoeste 22 Sudoeste 0 -- -- 55
2017-09-11 10:00:00 17.2 3 Noroeste 7 Nordeste 0 -- -- 61
2017-09-11 09:00:00 12.4 5 Nordeste 12 Nordeste 0 -- -- 66
2017-09-11 08:00:00 9.7 4 Este 10 Este 0 -- -- 73
2017-09-11 07:00:00 9.6 6 Nordeste 10 Nordeste 0 -- -- 73
2017-09-11 06:00:00 10 2 Este 6 Este 0 -- -- 71
2017-09-11 05:00:00 10.5 5 Este 10 Este 0 -- -- 68
2017-09-11 04:00:00 10.8 3 Este 7 Nordeste 0 -- -- 69
2017-09-11 03:00:00 11.5 0 Calma 6 Este 0 -- -- 66
2017-09-11 02:00:00 12.5 2 Nordeste 7 Nordeste 0 -- -- 62
2017-09-11 01:00:00 13.7 2 Sudoeste 9 Sudoeste 0 -- -- 57
2017-09-11 00:00:00 15.6 8 Sudoeste 15 Sudoeste 0 -- -- 54
2017-09-10 23:00:00 16.9 6 Oeste 20 Sudoeste 0 -- -- 49
2017-09-10 22:00:00 16.7 9 Sudoeste 18 Sur 0 -- -- 50
2017-09-10 21:00:00 17.8 10 Sur 22 Sudoeste 0 -- -- 44
2017-09-10 20:00:00 19.7 15 Sudoeste 37 Sudoeste 0 -- -- 40
2017-09-10 19:00:00 22.6 18 Oeste 33 Oeste 0 -- -- 25
2017-09-10 18:00:00 23.4 21 Oeste 37 Oeste 0 -- -- 24
2017-09-10 17:00:00 23.9 20 Oeste 34 Oeste 0 -- -- 23
2017-09-10 16:00:00 23.6 14 Oeste 24 Noroeste 0 -- -- 23
2017-09-10 15:00:00 22.8 10 Oeste 28 Norte 0 -- -- 23
2017-09-10 14:00:00 22.1 10 Noroeste 32 Noroeste 0 -- -- 24
2017-09-10 13:00:00 21.2 17 Norte 30 Nordeste 0 -- -- 28
2017-09-10 12:00:00 18.9 12 Sudoeste 25 Sudoeste 0 -- -- 36
2017-09-10 11:00:00 15.8 15 Sudoeste 27 Sudoeste 0 -- -- 47
2017-09-10 10:00:00 12.2 4 Oeste 8 Oeste 0 -- -- 58
2017-09-10 09:00:00 8.7 3 Nordeste 9 Nordeste 0 -- -- 73
2017-09-10 08:00:00 5.8 5 Nordeste 9 Nordeste 0 -- -- 86
2017-09-10 07:00:00 6.3 4 Sudeste 8 Nordeste 0 -- -- 86
2017-09-10 06:00:00 6.8 4 Este 8 Nordeste 0 -- -- 83
2017-09-10 05:00:00 7.5 3 Nordeste 10 Nordeste 0 -- -- 81
2017-09-10 04:00:00 7.7 4 Este 8 Nordeste 0 -- -- 82
2017-09-10 03:00:00 8.5 3 Sudeste 9 Nordeste 0 -- -- 81
2017-09-10 02:00:00 9.5 4 Este 9 Este 0 -- -- 78
2017-09-10 01:00:00 10.1 4 Sudeste 6 Oeste 0 -- -- 76
2017-09-10 00:00:00 11.5 4 Oeste 8 Sudoeste 0 -- -- 70
2017-09-09 23:00:00 13.2 6 Nordeste 13 Este 0 -- -- 65
2017-09-09 22:00:00 14.7 7 Nordeste 14 Este 0 -- -- 58
2017-09-09 21:00:00 16.3 9 Nordeste 30 Norte 0 -- -- 53
2017-09-09 20:00:00 19.1 14 Norte 32 Nordeste 0 -- -- 46
2017-09-09 19:00:00 21.3 18 Oeste 26 Oeste 0 -- -- 35
2017-09-09 18:00:00 21.4 14 Sur 24 Sur 0 -- -- 39
2017-09-09 17:00:00 21.2 11 Sur 26 Sur 0 -- -- 40
2017-09-09 16:00:00 20 17 Sur 28 Sur 0 -- -- 47
2017-09-09 15:00:00 19.1 12 Sur 22 Sudoeste 0 -- -- 55
2017-09-09 14:00:00 17.1 9 Sur 22 Sudoeste 0.2 -- -- 64
2017-09-09 13:00:00 17.5 10 Sudoeste 15 Sudoeste 0 -- -- 60
2017-09-09 12:00:00 15 4 Sur 12 Nordeste 0 -- -- 72
2017-09-09 11:00:00 13.7 4 Sur 15 Sudoeste 0.2 -- -- 83
2017-09-09 10:00:00 14 6 Este 12 Sur 0 -- -- 68
2017-09-09 09:00:00 13.5 4 Sudoeste 13 Sudoeste 0 -- -- 61
2017-09-09 08:00:00 11.9 4 Nordeste 6 Nordeste 0 -- -- 65
2017-09-09 07:00:00 11.4 0 Calma 8 Sudeste 0 -- -- 65
2017-09-09 06:00:00 11.7 0 Calma 6 Este 0 -- -- 63
2017-09-09 05:00:00 11.8 4 Este 8 Este 0 -- -- 61
2017-09-09 04:00:00 12.7 2 Nordeste 6 Este 0 -- -- 57
2017-09-09 03:00:00 13.1 5 Este 10 Nordeste 0 -- -- 55
2017-09-09 02:00:00 14 5 Este 13 Nordeste 0 -- -- 52
2017-09-09 01:00:00 14.1 5 Nordeste 12 Nordeste 0 -- -- 51
2017-09-09 00:00:00 15.1 7 Este 13 Nordeste 0 -- -- 48
2017-09-08 23:00:00 15.1 2 Nordeste 10 Este 0 -- -- 46
2017-09-08 22:00:00 16 2 Sudeste 8 Sur 0 -- -- 44
2017-09-08 21:00:00 19.3 3 Sudeste 10 Sudoeste 0 -- -- 37
2017-09-08 20:00:00 23.4 5 Sudoeste 12 Oeste 0 -- -- 29
2017-09-08 19:00:00 25.4 8 Sudoeste 21 Sudoeste 0 -- -- 25
2017-09-08 18:00:00 25.4 13 Sudoeste 24 Sudoeste 0 -- -- 29
2017-09-08 17:00:00 25.1 16 Oeste 29 Oeste 0 -- -- 32
2017-09-08 16:00:00 25 14 Sudoeste 27 Sudoeste 0 -- -- 32
2017-09-08 15:00:00 24.3 15 Sudoeste 32 Oeste 0 -- -- 35
2017-09-08 14:00:00 23.8 19 Oeste 33 Oeste 0 -- -- 36
2017-09-08 13:00:00 22.8 12 Oeste 21 Oeste 0 -- -- 37
2017-09-08 12:00:00 20.8 10 Oeste 15 Oeste 0 -- -- 40
2017-09-08 11:00:00 17.5 6 Oeste 12 Oeste 0 -- -- 45
2017-09-08 10:00:00 14.8 2 Noroeste 5 Oeste 0 -- -- 50
2017-09-08 09:00:00 11.4 0 Calma 6 Este 0 -- -- 66
2017-09-08 08:00:00 8.9 0 Calma 10 Nordeste 0 -- -- 74
2017-09-08 07:00:00 10.3 5 Este 9 Nordeste 0 -- -- 71
2017-09-08 06:00:00 10.7 4 Este 11 Nordeste 0 -- -- 71
2017-09-08 05:00:00 10.9 4 Nordeste 9 Nordeste 0 -- -- 67
2017-09-08 04:00:00 11.8 5 Este 9 Este 0 -- -- 65
2017-09-08 03:00:00 12.5 4 Sudeste 12 Norte 0 -- -- 65
2017-09-08 02:00:00 13.4 6 Nordeste 12 Este 0 -- -- 62
2017-09-08 01:00:00 14.7 4 Nordeste 12 Este 0 -- -- 60
2017-09-08 00:00:00 15.3 5 Nordeste 9 Nordeste 0 -- -- 59
2017-09-07 23:00:00 16.2 5 Nordeste 12 Nordeste 0 -- -- 56
2017-09-07 22:00:00 17.1 4 Nordeste 8 Nordeste 0 -- -- 53
2017-09-07 21:00:00 20.2 3 Norte 15 Sur 0 -- -- 45
2017-09-07 20:00:00 22.9 7 Sur 19 Sudoeste 0 -- -- 38
2017-09-07 19:00:00 24.9 10 Sudoeste 21 Sudoeste 0 -- -- 33
2017-09-07 18:00:00 25.3 12 Sudoeste 24 Sudoeste 0 -- -- 32
2017-09-07 17:00:00 25 12 Oeste 26 Sur 0 -- -- 35
2017-09-07 16:00:00 23.9 14 Sudoeste 30 Sudoeste 0 -- -- 41
2017-09-07 15:00:00 23.3 19 Sudoeste 32 Sudoeste 0 -- -- 44
2017-09-07 14:00:00 22.2 19 Oeste 31 Sudoeste 0 -- -- 47
2017-09-07 13:00:00 22.3 17 Oeste 25 Sudoeste 0 -- -- 49
2017-09-07 12:00:00 20.3 14 Oeste 21 Sudoeste 0 -- -- 54
2017-09-07 11:00:00 17.9 7 Oeste 12 Oeste 0 -- -- 64
2017-09-07 10:00:00 15.5 4 Oeste 9 Oeste 0 -- -- 73
2017-09-07 09:00:00 12.9 0 Calma 6 Este 0 -- -- 85
2017-09-07 08:00:00 10.5 2 Nordeste 4 Nordeste 0 -- -- 89
2017-09-07 07:00:00 11.4 0 Calma 5 Sudeste 0 -- -- 87
2017-09-07 06:00:00 12.2 4 Sudeste 5 Sudeste 0 -- -- 87
2017-09-07 05:00:00 12.9 0 Calma 5 Nordeste 0 -- -- 81
2017-09-07 04:00:00 14 3 Sur 6 Sur 0 -- -- 78
2017-09-07 03:00:00 14.5 0 Calma 6 Sudeste 0 -- -- 77
2017-09-07 02:00:00 15.4 0 Calma 8 Sur 0 -- -- 74
2017-09-07 01:00:00 16.1 0 Calma 6 Sur 0 -- -- 71
2017-09-07 00:00:00 17.5 2 Este 7 Este 0 -- -- 65
2017-09-06 23:00:00 18.4 4 Sudeste 7 Sudeste 0 -- -- 63
2017-09-06 22:00:00 20.6 2 Nordeste 13 Sur 0 -- -- 56
2017-09-06 21:00:00 23.1 8 Sur 19 Sur 0 -- -- 49
2017-09-06 20:00:00 25.5 14 Sur 30 Sur 0 -- -- 43
2017-09-06 19:00:00 27.7 18 Sur 30 Sur 0 -- -- 39
2017-09-06 18:00:00 28.6 15 Sur 31 Sudoeste 0 -- -- 38
2017-09-06 17:00:00 28.2 14 Sudoeste 28 Oeste 0 -- -- 42
2017-09-06 16:00:00 28.3 20 Oeste 28 Oeste 0 -- -- 44
2017-09-06 15:00:00 27.6 17 Sudoeste 29 Oeste 0 -- -- 48
2017-09-06 14:00:00 27.2 15 Sudoeste 28 Oeste 0 -- -- 48
2017-09-06 13:00:00 25.8 17 Oeste 27 Sudoeste 0 -- -- 56
2017-09-06 12:00:00 24.8 8 Oeste 19 Sudoeste 0 -- -- 59
2017-09-06 11:00:00 22.3 8 Oeste 13 Oeste 0 -- -- 65
2017-09-06 10:00:00 19.9 0 Calma 6 Nordeste 0 -- -- 70
2017-09-06 09:00:00 17.6 2 Nordeste 5 Nordeste 0 -- -- 78
2017-09-06 08:00:00 15.6 2 Este 5 Este 0 -- -- 83
2017-09-06 07:00:00 16.1 0 Calma 8 Sudeste 0 -- -- 79
2017-09-06 06:00:00 16.2 5 Sudeste 9 Nordeste 0 -- -- 79
2017-09-06 05:00:00 17.1 3 Este 10 Este 0 -- -- 74
2017-09-06 04:00:00 17.5 5 Este 10 Nordeste 0 -- -- 72
2017-09-06 03:00:00 18.3 3 Este 8 Este 0 -- -- 69
2017-09-06 02:00:00 19.2 4 Nordeste 9 Este 0 -- -- 65
2017-09-06 01:00:00 19.3 3 Sudeste 8 Nordeste 0 -- -- 64
2017-09-06 00:00:00 20.2 3 Nordeste 8 Este 0 -- -- 61
2017-09-05 23:00:00 21.2 2 Nordeste 5 Este 0 -- -- 58
2017-09-05 22:00:00 23.6 0 Calma 10 Sur 0 -- -- 51
2017-09-05 21:00:00 25.9 7 Sur 16 Sudoeste 0 -- -- 45
2017-09-05 20:00:00 27.4 12 Sudoeste 25 Sudoeste 0 -- -- 43
2017-09-05 19:00:00 29.1 14 Sudoeste 24 Oeste 0 -- -- 40
2017-09-05 18:00:00 29.8 10 Sudoeste 23 Oeste 0 -- -- 38
2017-09-05 17:00:00 29.6 9 Sudoeste 22 Sudoeste 0 -- -- 37
2017-09-05 16:00:00 29.2 10 Sudoeste 23 Sudoeste 0 -- -- 40
2017-09-05 15:00:00 28.5 15 Sudoeste 35 Sudoeste 0 -- -- 41
2017-09-05 14:00:00 27.9 11 Sudoeste 26 Sudoeste 0 -- -- 43
2017-09-05 13:00:00 26.8 8 Sudoeste 19 Oeste 0 -- -- 45
2017-09-05 12:00:00 24.9 5 Oeste 13 Oeste 0 -- -- 54
2017-09-05 11:00:00 22.7 8 Oeste 12 Oeste 0 -- -- 65
2017-09-05 10:00:00 20.3 2 Sudoeste 4 Nordeste 0 -- -- 74
2017-09-05 09:00:00 17.6 2 Nordeste 4 Nordeste 0 -- -- 83
2017-09-05 08:00:00 15.3 3 Este 7 Norte 0 -- -- 93
2017-09-05 07:00:00 15.9 3 Nordeste 7 Nordeste 0 -- -- 91
2017-09-05 06:00:00 16.8 2 Nordeste 5 Nordeste 0 -- -- 87
2017-09-05 05:00:00 17.1 0 Calma 3 Norte 0 -- -- 87
2017-09-05 04:00:00 17.4 0 Calma 3 Nordeste 0 -- -- 86
2017-09-05 03:00:00 16.8 2 Sur 6 Sur 0 -- -- 86
2017-09-05 02:00:00 18.1 3 Oeste 6 Sur 0 -- -- 81
2017-09-05 01:00:00 19.4 3 Sudeste 7 Oeste 0 -- -- 76
2017-09-05 00:00:00 21 0 Calma 12 Sudeste 0 -- -- 70
2017-09-04 23:00:00 22.1 4 Sur 9 Este 0 -- -- 65
2017-09-04 22:00:00 22.5 3 Oeste 13 Nordeste 0 -- -- 64
2017-09-04 21:00:00 22.7 5 Norte 12 Norte 0 -- -- 63
2017-09-04 20:00:00 23.8 4 Norte 30 Sudeste 0 -- -- 58
2017-09-04 19:00:00 24 11 Sudeste 30 Sur 0 -- -- 58
2017-09-04 18:00:00 25.9 12 Sudeste 27 Sudeste 0 -- -- 48
2017-09-04 17:00:00 27.4 5 Sudoeste 23 Sur 0 -- -- 37
2017-09-04 16:00:00 26.4 17 Oeste 24 Sudoeste 0 -- -- 42
2017-09-04 15:00:00 26.3 6 Oeste 21 Sudoeste 0 -- -- 40
2017-09-04 14:00:00 26.4 7 Sudoeste 19 Oeste 0 -- -- 39
2017-09-04 13:00:00 25.6 3 Noroeste 18 Sudoeste 0 -- -- 41
2017-09-04 12:00:00 24.4 7 Oeste 13 Oeste 0 -- -- 46
2017-09-04 11:00:00 22 3 Nordeste 7 Norte 0 -- -- 49
2017-09-04 10:00:00 18.3 0 Calma 5 Sudeste 0 -- -- 66
2017-09-04 09:00:00 15.9 0 Calma 4 Norte 0 -- -- 78
2017-09-04 08:00:00 15 2 Sudeste 11 Sur 0 -- -- 82
2017-09-04 07:00:00 15.3 0 Calma 8 Sur 0 -- -- 80
2017-09-04 06:00:00 15.7 4 Este 14 Nordeste 0 -- -- 77
2017-09-04 05:00:00 15.4 5 Este 9 Este 0 -- -- 80
2017-09-04 04:00:00 15.5 5 Sudeste 13 Sudoeste 0 -- -- 80
2017-09-04 03:00:00 16.4 11 Sudoeste 19 Sudoeste 0 -- -- 78
2017-09-04 02:00:00 17.4 9 Nordeste 14 Nordeste 0.2 -- -- 70
2017-09-04 01:00:00 18.9 3 Sudeste 9 Norte 0 -- -- 59
2017-09-04 00:00:00 19.2 2 Oeste 7 Sur 0 -- -- 56
2017-09-03 23:00:00 19.1 3 Este 11 Nordeste 0 -- -- 60
2017-09-03 22:00:00 21.2 0 Calma 12 Sur 0 -- -- 40
2017-09-03 21:00:00 23.1 11 Sur 21 Sur 0 -- -- 36
2017-09-03 20:00:00 24.3 12 Sur 25 Sur 0 -- -- 32
2017-09-03 19:00:00 25.4 16 Sur 30 Sur 0 -- -- 31
2017-09-03 18:00:00 26.1 15 Sur 37 Sudeste 0 -- -- 30
2017-09-03 17:00:00 25.4 18 Sur 33 Sudoeste 0 -- -- 31
2017-09-03 16:00:00 25.1 17 Sudoeste 32 Sudoeste 0 -- -- 31
2017-09-03 15:00:00 23.5 15 Sudoeste 23 Sudoeste 0 -- -- 34
2017-09-03 14:00:00 23 9 Oeste 17 Oeste 0 -- -- 34
2017-09-03 13:00:00 21.4 7 Oeste 15 Oeste 0 -- -- 37
2017-09-03 12:00:00 18.4 5 Oeste 14 Sudoeste 0 -- -- 44
2017-09-03 11:00:00 15.5 4 Oeste 10 Oeste 0 -- -- 52
2017-09-03 10:00:00 13.9 2 Oeste 8 Este 0 -- -- 55
2017-09-03 09:00:00 11.9 0 Calma 6 Este 0 -- -- 63
2017-09-03 08:00:00 10.1 4 Nordeste 8 Nordeste 0 -- -- 70
2017-09-03 07:00:00 9.6 2 Sudeste 5 Sudeste 0 -- -- 70
2017-09-03 06:00:00 10.3 0 Calma 10 Nordeste 0 -- -- 63
2017-09-03 05:00:00 11.5 6 Nordeste 12 Nordeste 0 -- -- 60
2017-09-03 04:00:00 12.1 5 Este 7 Este 0 -- -- 58
2017-09-03 03:00:00 12.4 3 Este 10 Nordeste 0 -- -- 58
2017-09-03 02:00:00 13.8 5 Nordeste 12 Nordeste 0 -- -- 53
2017-09-03 01:00:00 13.9 3 Nordeste 10 Nordeste 0 -- -- 57
2017-09-03 00:00:00 14.6 4 Nordeste 11 Nordeste 0 -- -- 56
2017-09-02 23:00:00 16.2 7 Nordeste 10 Nordeste 0 -- -- 52
2017-09-02 22:00:00 17.1 0 Calma 9 Sudeste 0 -- -- 48
2017-09-02 21:00:00 21.2 0 Calma 26 Sur 0 -- -- 38
2017-09-02 20:00:00 23.4 14 Sur 28 Sur 0 -- -- 35
2017-09-02 19:00:00 25.1 16 Sur 28 Sudoeste 0 -- -- 30
2017-09-02 18:00:00 25.3 14 Sudoeste 29 Oeste 0 -- -- 27
2017-09-02 17:00:00 25.3 17 Sur 32 Sur 0 -- -- 25
2017-09-02 16:00:00 25.2 15 Sudoeste 36 Sur 0 -- -- 24
2017-09-02 15:00:00 24.2 12 Sur 27 Sudoeste 0 -- -- 26
2017-09-02 14:00:00 22.7 12 Sudoeste 28 Sudoeste 0 -- -- 30
2017-09-02 13:00:00 21.5 9 Oeste 22 Sudoeste 0 -- -- 28
2017-09-02 12:00:00 19.9 10 Oeste 19 Oeste 0 -- -- 31
2017-09-02 11:00:00 17.6 7 Oeste 12 Sudoeste 0 -- -- 38
2017-09-02 10:00:00 14.6 3 Oeste 9 Norte 0 -- -- 47
2017-09-02 09:00:00 10.6 2 Este 6 Nordeste 0 -- -- 59
2017-09-02 08:00:00 6.9 2 Norte 4 Este 0 -- -- 75
2017-09-02 07:00:00 7.4 0 Calma 8 Este 0 -- -- 72
2017-09-02 06:00:00 8.3 6 Este 10 Nordeste 0 -- -- 72
2017-09-02 05:00:00 8.8 4 Nordeste 6 Nordeste 0 -- -- 72
2017-09-02 04:00:00 9.6 4 Nordeste 8 Nordeste 0 -- -- 71
2017-09-02 03:00:00 10.9 2 Este 7 Nordeste 0 -- -- 69
2017-09-02 02:00:00 11.2 3 Nordeste 8 Sudeste 0 -- -- 68
2017-09-02 01:00:00 12 3 Nordeste 5 Sur 0 -- -- 64
2017-09-02 00:00:00 13.6 3 Sudoeste 12 Oeste 0 -- -- 59
2017-09-01 23:00:00 15.7 3 Nordeste 14 Sur 0 -- -- 51
2017-09-01 22:00:00 18.4 9 Sur 20 Sur 0 -- -- 43
2017-09-01 21:00:00 19.9 11 Sur 24 Sudoeste 0 -- -- 40
2017-09-01 20:00:00 22.2 16 Sur 39 Sur 0 -- -- 35
2017-09-01 19:00:00 23.5 24 Sur 40 Sudoeste 0 -- -- 32
2017-09-01 18:00:00 24.6 22 Sur 34 Sur 0 -- -- 31
2017-09-01 17:00:00 25.1 19 Sur 35 Sudoeste 0 -- -- 28
2017-09-01 16:00:00 24.8 12 Sur 32 Sudoeste 0 -- -- 27
2017-09-01 15:00:00 23.7 15 Sudoeste 34 Sur 0 -- -- 32
2017-09-01 14:00:00 21.8 12 Sur 28 Sudoeste 0 -- -- 42
2017-09-01 13:00:00 21.2 14 Sudoeste 24 Oeste 0 -- -- 45
2017-09-01 12:00:00 20 8 Sudoeste 19 Sudoeste 0 -- -- 43
2017-09-01 11:00:00 18.2 6 Oeste 15 Sudoeste 0 -- -- 56
2017-09-01 10:00:00 15.6 5 Oeste 9 Sudoeste 0 -- -- 69
2017-09-01 09:00:00 13.4 2 Norte 5 Nordeste 0 -- -- 80
2017-09-01 08:00:00 11.6 0 Calma 6 Oeste 0 -- -- 83
2017-09-01 07:00:00 12.2 0 Calma 5 Sur 0 -- -- 80
2017-09-01 06:00:00 12.7 2 Norte 15 Sur 0 -- -- 80
2017-09-01 05:00:00 12.2 7 Sudoeste 13 Nordeste 0 -- -- 82
2017-09-01 04:00:00 12.6 3 Este 8 Nordeste 0 -- -- 76
2017-09-01 03:00:00 13.3 5 Nordeste 12 Nordeste 0 -- -- 75
2017-09-01 02:00:00 13.6 0 Calma 11 Nordeste 0 -- -- 75
2017-09-01 01:00:00 15.1 4 Este 9 Nordeste 0 -- -- 72
2017-09-01 00:00:00 16.1 2 Este 8 Nordeste 0 -- -- 68
2017-08-31 23:00:00 18.2 3 Sudeste 10 Sudoeste 0 -- -- 61
2017-08-31 22:00:00 20.2 8 Sur 21 Sudeste 0 -- -- 54
2017-08-31 21:00:00 21.1 10 Sur 21 Sur 0 -- -- 52
2017-08-31 20:00:00 23 12 Sur 26 Sur 0 -- -- 47
2017-08-31 19:00:00 24.6 15 Sudoeste 30 Sur 0 -- -- 43
2017-08-31 18:00:00 25 15 Sudoeste 29 Sudoeste 0 -- -- 44
2017-08-31 17:00:00 24.9 16 Sur 31 Sudoeste 0 -- -- 43
2017-08-31 16:00:00 24.1 15 Sur 28 Sudoeste 0 -- -- 46
2017-08-31 15:00:00 23.9 16 Sudoeste 29 Oeste 0 -- -- 50
2017-08-31 14:00:00 23.1 17 Sudoeste 31 Sudoeste 0 -- -- 58
2017-08-31 13:00:00 22.3 20 Sudoeste 36 Sudoeste 0 -- -- 62
2017-08-31 12:00:00 21.8 11 Sudoeste 16 Sudoeste 0 -- -- 62
2017-08-31 11:00:00 20.6 8 Sudoeste 12 Oeste 0 -- -- 71
2017-08-31 10:00:00 18.5 5 Oeste 9 Sudoeste 0 -- -- 79
2017-08-31 09:00:00 16.8 0 Calma 5 Sudeste 0 -- -- 88
2017-08-31 08:00:00 16.2 2 Sur 8 Sur 0 -- -- 90
2017-08-31 07:00:00 16.3 5 Sur 9 Sur 0 -- -- 89
2017-08-31 06:00:00 16.6 0 Calma 4 Nordeste 0 -- -- 87
2017-08-31 05:00:00 17.2 0 Calma 9 Este 0 -- -- 83
2017-08-31 04:00:00 17.7 3 Este 9 Este 0 -- -- 81
2017-08-31 03:00:00 17.1 0 Calma 9 Nordeste 0 -- -- 85
2017-08-31 02:00:00 16.8 5 Nordeste 10 Nordeste 0 -- -- 85
2017-08-31 01:00:00 17 0 Calma 4 Sur 0 -- -- 83
2017-08-31 00:00:00 18.5 0 Calma 8 Sudoeste 0 -- -- 75
2017-08-30 23:00:00 20.1 3 Este 12 Nordeste 0 -- -- 71
2017-08-30 22:00:00 20.6 8 Nordeste 20 Este 0 -- -- 71
2017-08-30 21:00:00 21.8 9 Nordeste 17 Nordeste 0 -- -- 64
2017-08-30 20:00:00 22.9 9 Sudoeste 17 Oeste 0 -- -- 56
2017-08-30 19:00:00 23.8 8 Oeste 17 Sudoeste 0 -- -- 52
2017-08-30 18:00:00 24.9 6 Sudoeste 24 Sur 0 -- -- 49
2017-08-30 17:00:00 25.9 15 Sur 26 Sudoeste 0 -- -- 45
2017-08-30 16:00:00 27.6 8 Sudeste 25 Sur 0 -- -- 39
2017-08-30 15:00:00 26.4 8 Sur 22 Este 0 -- -- 42
2017-08-30 14:00:00 26.8 12 Sudeste 26 Sudeste 0 -- -- 41
2017-08-30 13:00:00 25.7 5 Este 18 Nordeste 0 -- -- 43
2017-08-30 12:00:00 24.9 6 Este 18 Nordeste 0 -- -- 45
2017-08-30 11:00:00 22.8 4 Noroeste 15 Sudoeste 0 -- -- 53
2017-08-30 10:00:00 21 8 Sudoeste 13 Sudoeste 0 -- -- 62
2017-08-30 09:00:00 18.9 7 Nordeste 17 Nordeste 0 -- -- 69
2017-08-30 08:00:00 18.4 8 Nordeste 23 Nordeste 0 -- -- 67
2017-08-30 07:00:00 18.4 10 Nordeste 21 Este 0 -- -- 68
2017-08-30 06:00:00 17.8 8 Norte 26 Norte 0 -- -- 75
2017-08-30 05:00:00 18.2 5 Nordeste 19 Este 0 -- -- 67
2017-08-30 04:00:00 17.8 3 Nordeste 7 Nordeste 0 -- -- 70
2017-08-30 03:00:00 17.3 4 Nordeste 8 Este 0 -- -- 74
2017-08-30 02:00:00 16.3 7 Nordeste 10 Nordeste 0 -- -- 74
2017-08-30 01:00:00 17.4 0 Calma 13 Sudoeste 0 -- -- 76
2017-08-30 00:00:00 19.3 2 Nordeste 20 Norte 0 -- -- 66
2017-08-29 23:00:00 19.6 6 Nordeste 17 Nordeste 0 -- -- 73
2017-08-29 22:00:00 20.6 5 Este 19 Sudeste 0.4 -- -- 66
2017-08-29 21:00:00 23.5 7 Este 21 Nordeste 0 -- -- 52
2017-08-29 20:00:00 24.2 5 Sudeste 24 Sudeste 0 -- -- 52
2017-08-29 19:00:00 25.3 10 Este 29 Sudeste 0 -- -- 49
2017-08-29 18:00:00 26.7 9 Sudeste 33 Sudeste 0 -- -- 43
2017-08-29 17:00:00 27.8 18 Sudeste 33 Sudeste 0 -- -- 40
2017-08-29 16:00:00 27.7 9 Este 30 Sur 0 -- -- 44
2017-08-29 15:00:00 27.5 16 Sur 32 Sur 0 -- -- 43
2017-08-29 14:00:00 27.8 7 Sudeste 19 Este 0 -- -- 43
2017-08-29 13:00:00 27.3 6 Sudeste 26 Este 0 -- -- 48
2017-08-29 12:00:00 25.8 4 Sur 11 Este 0 -- -- 55
2017-08-29 11:00:00 22.6 6 Este 13 Oeste 0 -- -- 72
2017-08-29 10:00:00 19.8 10 Oeste 22 Sudoeste 0 -- -- 83
2017-08-29 09:00:00 18.4 5 Sudoeste 8 Oeste 0 -- -- 86
2017-08-29 08:00:00 17 2 Sudeste 5 Sudeste 0 -- -- 90
2017-08-29 07:00:00 17.3 0 Calma 8 Nordeste 0 -- -- 87
2017-08-29 06:00:00 18.3 3 Nordeste 7 Nordeste 0 -- -- 87
2017-08-29 05:00:00 19.2 3 Sudeste 5 Sudeste 0 -- -- 88
2017-08-29 04:00:00 19.7 0 Calma 5 Norte 0 -- -- 87
2017-08-29 03:00:00 19.9 2 Sudoeste 29 Sudoeste 0 -- -- 86
2017-08-29 02:00:00 21.1 18 Oeste 29 Sudoeste 0 -- -- 79
2017-08-29 01:00:00 22.1 0 Calma 8 Nordeste 0 -- -- 70
2017-08-29 00:00:00 24 3 Sur 18 Sudeste 0 -- -- 61
2017-08-28 23:00:00 24.8 6 Nordeste 18 Nordeste 0 -- -- 49
2017-08-28 22:00:00 25.1 2 Nordeste 12 Nordeste 0 -- -- 51
2017-08-28 21:00:00 25.9 5 Este 11 Sudoeste 0 -- -- 52
2017-08-28 20:00:00 27.5 6 Sudoeste 33 Sur 0 -- -- 47
2017-08-28 19:00:00 29.7 25 Sur 39 Sur 0 -- -- 40
2017-08-28 18:00:00 32.9 14 Sudeste 32 Sur 0 -- -- 27
2017-08-28 17:00:00 33.9 12 Sur 29 Sudeste 0 -- -- 28
2017-08-28 16:00:00 34.8 10 Sudeste 24 Nordeste 0 -- -- 28
2017-08-28 15:00:00 34.3 11 Nordeste 23 Norte 0 -- -- 25
2017-08-28 14:00:00 32.6 5 Oeste 15 Oeste 0 -- -- 27
2017-08-28 13:00:00 30.3 4 Norte 10 Norte 0 -- -- 34
2017-08-28 12:00:00 26.1 2 Este 6 Este 0 -- -- 44
2017-08-28 11:00:00 23 3 Nordeste 5 Este 0 -- -- 56
2017-08-28 10:00:00 19.1 3 Este 6 Sudoeste 0 -- -- 70
2017-08-28 09:00:00 18.2 4 Oeste 7 Oeste 0 -- -- 75
2017-08-28 08:00:00 15.9 4 Nordeste 6 Nordeste 0 -- -- 78
2017-08-28 07:00:00 15.6 3 Sur 8 Sur 0 -- -- 80
2017-08-28 06:00:00 16.6 4 Este 7 Este 0 -- -- 80
2017-08-28 05:00:00 15.5 0 Calma 6 Nordeste 0 -- -- 86
2017-08-28 04:00:00 16.1 0 Calma 7 Nordeste 0 -- -- 84
2017-08-28 03:00:00 16.5 5 Nordeste 7 Nordeste 0 -- -- 84
2017-08-28 02:00:00 17.5 2 Nordeste 7 Sur 0 -- -- 83
2017-08-28 01:00:00 17.9 0 Calma 6 Sur 0 -- -- 85
2017-08-28 00:00:00 19.1 3 Sudeste 6 Este 0 -- -- 80
2017-08-27 23:00:00 20.4 3 Este 8 Oeste 0 -- -- 79
2017-08-27 22:00:00 20.8 3 Sudoeste 10 Sudoeste 0 -- -- 76
2017-08-27 21:00:00 21.9 7 Sur 21 Sudoeste 0.2 -- -- 70
2017-08-27 20:00:00 22.8 14 Sudoeste 28 Sudoeste 0 -- -- 68
2017-08-27 19:00:00 26.3 19 Sur 33 Sudoeste 0 -- -- 48
2017-08-27 18:00:00 28.7 19 Sudoeste 34 Sudoeste 0 -- -- 38
2017-08-27 17:00:00 30.4 18 Sudoeste 33 Sudoeste 0 -- -- 37
2017-08-27 16:00:00 32.8 5 Norte 21 Sur 0 -- -- 27
2017-08-27 15:00:00 32.9 7 Oeste 17 Norte 0 -- -- 27
2017-08-27 14:00:00 31.3 4 Sur 11 Norte 0 -- -- 32
2017-08-27 13:00:00 29.3 6 Sudoeste 22 Oeste 0 -- -- 38
2017-08-27 12:00:00 27.5 14 Sudoeste 22 Sudoeste 0 -- -- 42
2017-08-27 11:00:00 25.4 3 Oeste 5 Oeste 0 -- -- 49
2017-08-27 10:00:00 23.2 0 Calma 8 Oeste 0 -- -- 52
2017-08-27 09:00:00 21.7 0 Calma 14 Norte 0 -- -- 56
2017-08-27 08:00:00 19.2 8 Nordeste 14 Nordeste 0 -- -- 66
2017-08-27 07:00:00 19.7 4 Nordeste 10 Este 0 -- -- 66
2017-08-27 06:00:00 20.1 5 Nordeste 10 Nordeste 0 -- -- 63
2017-08-27 05:00:00 20.5 2 Este 5 Nordeste 0 -- -- 66
2017-08-27 04:00:00 20.9 0 Calma 11 Sur 0 -- -- 62
2017-08-27 03:00:00 20.9 4 Sudeste 10 Sur 0 -- -- 62
2017-08-27 02:00:00 22.5 3 Este 13 Este 0 -- -- 57
2017-08-27 01:00:00 22.7 4 Noroeste 9 Este 0 -- -- 59
2017-08-27 00:00:00 24.3 4 Este 11 Sur 0 -- -- 52
2017-08-26 23:00:00 24.9 5 Sur 19 Oeste 0 -- -- 54
2017-08-26 22:00:00 25.3 10 Este 53 Sudeste 0 -- -- 46
2017-08-26 21:00:00 28.1 16 Sudeste 40 Sudeste 0 -- -- 48
2017-08-26 20:00:00 30.4 18 Sur 29 Sur 0 -- -- 37
2017-08-26 19:00:00 32.6 8 Sur 17 Sur 0 -- -- 25
2017-08-26 18:00:00 33.5 6 Este 20 Nordeste 0 -- -- 22
2017-08-26 17:00:00 34.2 9 Este 20 Sudeste 0 -- -- 23
2017-08-26 16:00:00 33.4 8 Sudeste 19 Sur 0 -- -- 22
2017-08-26 15:00:00 32.6 7 Sudeste 28 Sur 0 -- -- 24
2017-08-26 14:00:00 32.2 8 Sudeste 18 Sur 0 -- -- 25
2017-08-26 13:00:00 31.4 7 Nordeste 18 Nordeste 0 -- -- 27
2017-08-26 12:00:00 30.1 10 Nordeste 23 Este 0 -- -- 29
2017-08-26 11:00:00 27.6 12 Este 23 Este 0 -- -- 33
2017-08-26 10:00:00 23.1 6 Oeste 9 Oeste 0 -- -- 46
2017-08-26 09:00:00 20.3 4 Nordeste 13 Nordeste 0 -- -- 54
2017-08-26 08:00:00 17.7 3 Nordeste 9 Nordeste 0 -- -- 61
2017-08-26 07:00:00 18.5 5 Este 10 Este 0 -- -- 56
2017-08-26 06:00:00 19 5 Nordeste 12 Nordeste 0 -- -- 56
2017-08-26 05:00:00 22.2 9 Nordeste 24 Este 0 -- -- 45
2017-08-26 04:00:00 21.3 8 Nordeste 20 Este 0 -- -- 48
2017-08-26 03:00:00 21 7 Nordeste 14 Nordeste 0 -- -- 50
2017-08-26 02:00:00 21.9 6 Nordeste 14 Nordeste 0 -- -- 48
2017-08-26 01:00:00 22.7 8 Nordeste 19 Norte 0 -- -- 46
2017-08-26 00:00:00 24.5 8 Nordeste 30 Sudeste 0 -- -- 42
2017-08-25 23:00:00 25.1 6 Este 17 Este 0 -- -- 37
2017-08-25 22:00:00 25.9 10 Nordeste 22 Este 0 -- -- 35
2017-08-25 21:00:00 27.8 12 Este 46 Sudeste 0 -- -- 31
2017-08-25 20:00:00 30.4 6 Este 23 Nordeste 0 -- -- 30
2017-08-25 19:00:00 31.9 9 Este 23 Nordeste 0 -- -- 28
2017-08-25 18:00:00 31.9 10 Sudeste 23 Sudeste 0 -- -- 29
2017-08-25 17:00:00 31.9 12 Sudeste 27 Nordeste 0 -- -- 25
2017-08-25 16:00:00 32.9 12 Nordeste 26 Nordeste 0 -- -- 27
2017-08-25 15:00:00 31.1 11 Este 24 Nordeste 0 -- -- 25
2017-08-25 14:00:00 31.5 10 Sur 25 Sur 0 -- -- 22
2017-08-25 13:00:00 31.6 9 Nordeste 23 Nordeste 0 -- -- 24
2017-08-25 12:00:00 30 9 Nordeste 22 Nordeste 0 -- -- 26
2017-08-25 11:00:00 27.4 13 Nordeste 24 Nordeste 0 -- -- 28
2017-08-25 10:00:00 23.3 5 Norte 10 Norte 0 -- -- 43
2017-08-25 09:00:00 19.5 3 Sudeste 6 Este 0 -- -- 54
2017-08-25 08:00:00 17.7 4 Sudeste 9 Este 0 -- -- 58
2017-08-25 07:00:00 16.7 0 Calma 4 Sudeste 0 -- -- 61
2017-08-25 06:00:00 18.7 3 Nordeste 7 Norte 0 -- -- 57
2017-08-25 05:00:00 18.9 0 Calma 9 Nordeste 0 -- -- 56
2017-08-25 04:00:00 19.2 6 Nordeste 13 Nordeste 0 -- -- 46
2017-08-25 03:00:00 19.6 7 Nordeste 12 Nordeste 0 -- -- 45
2017-08-25 02:00:00 20.1 8 Nordeste 12 Este 0 -- -- 51
2017-08-25 01:00:00 21.7 8 Este 11 Este 0 -- -- 46
2017-08-25 00:00:00 23.8 5 Este 13 Nordeste 0 -- -- 39
2017-08-24 23:00:00 24.2 6 Nordeste 12 Este 0 -- -- 43
2017-08-24 22:00:00 26.2 4 Nordeste 17 Sudeste 0 -- -- 35
2017-08-24 21:00:00 28 12 Sudeste 31 Sudeste 0 -- -- 31
2017-08-24 20:00:00 30.2 16 Sudeste 27 Sudeste 0 -- -- 29
2017-08-24 19:00:00 32.1 8 Sudeste 21 Sudeste 0 -- -- 27
2017-08-24 18:00:00 31.9 9 Sudeste 22 Este 0 -- -- 27
2017-08-24 17:00:00 32.3 9 Este 22 Sudeste 0 -- -- 26
2017-08-24 16:00:00 32.4 10 Sudeste 22 Sudeste 0 -- -- 26
2017-08-24 15:00:00 31.8 9 Sudeste 21 Este 0 -- -- 28
2017-08-24 14:00:00 31 10 Sur 20 Sudeste 0 -- -- 34
2017-08-24 13:00:00 29.8 11 Nordeste 19 Nordeste 0 -- -- 38
2017-08-24 12:00:00 27 4 Nordeste 12 Nordeste 0 -- -- 50
2017-08-24 11:00:00 23.9 4 Noroeste 9 Norte 0 -- -- 62
2017-08-24 10:00:00 21.3 4 Norte 7 Norte 0 -- -- 72
2017-08-24 09:00:00 19.2 3 Nordeste 6 Este 0 -- -- 79
2017-08-24 08:00:00 17.3 3 Nordeste 10 Norte 0 -- -- 87
2017-08-24 07:00:00 17.7 3 Norte 12 Norte 0 -- -- 89
2017-08-24 06:00:00 18.6 4 Norte 24 Este 0 -- -- 84
2017-08-24 05:00:00 18.9 16 Nordeste 26 Nordeste 0 -- -- 83
2017-08-24 04:00:00 18.6 12 Nordeste 36 Este 1.2 -- -- 81
2017-08-24 03:00:00 18.7 14 Sur 30 Sudoeste 1.6 -- -- 84
2017-08-24 02:00:00 21.2 11 Sudoeste 28 Sudoeste 0.6 -- -- 74
2017-08-24 01:00:00 22.7 8 Este 24 Norte 0 -- -- 69
2017-08-24 00:00:00 24 6 Nordeste 12 Sudoeste 0 -- -- 67